sensor_id;sensor_type;location;lat;lon;timestamp;P1;durP1;ratioP1;P2;durP2;ratioP2
70052;SDS011;57398;52.032;4.376;2022-09-21T00:00:26;5.72;;;1.70;;
70052;SDS011;57398;52.032;4.376;2022-09-21T00:02:54;5.37;;;1.70;;
70052;SDS011;57398;52.032;4.376;2022-09-21T00:05:22;6.32;;;1.70;;
70052;SDS011;57398;52.032;4.376;2022-09-21T00:07:49;7.05;;;1.70;;
70052;SDS011;57398;52.032;4.376;2022-09-21T00:10:17;6.40;;;1.75;;
70052;SDS011;57398;52.032;4.376;2022-09-21T00:12:46;4.25;;;1.50;;
70052;SDS011;57398;52.032;4.376;2022-09-21T00:15:15;6.07;;;1.77;;
70052;SDS011;57398;52.032;4.376;2022-09-21T00:17:43;5.38;;;1.75;;
70052;SDS011;57398;52.032;4.376;2022-09-21T00:20:11;5.35;;;1.90;;
70052;SDS011;57398;52.032;4.376;2022-09-21T00:22:39;4.97;;;1.77;;
70052;SDS011;57398;52.032;4.376;2022-09-21T00:25:07;5.65;;;1.70;;
70052;SDS011;57398;52.032;4.376;2022-09-21T00:27:35;6.93;;;2.10;;
70052;SDS011;57398;52.032;4.376;2022-09-21T00:30:04;4.07;;;1.40;;
70052;SDS011;57398;52.032;4.376;2022-09-21T00:32:33;7.43;;;1.73;;
70052;SDS011;57398;52.032;4.376;2022-09-21T00:35:01;5.30;;;1.90;;
70052;SDS011;57398;52.032;4.376;2022-09-21T00:37:30;5.60;;;1.85;;
70052;SDS011;57398;52.032;4.376;2022-09-21T00:39:57;6.90;;;1.93;;
70052;SDS011;57398;52.032;4.376;2022-09-21T00:42:25;5.93;;;1.90;;
70052;SDS011;57398;52.032;4.376;2022-09-21T00:44:53;6.07;;;1.85;;
70052;SDS011;57398;52.032;4.376;2022-09-21T00:47:27;5.78;;;2.00;;
70052;SDS011;57398;52.032;4.376;2022-09-21T00:49:57;6.95;;;2.15;;
70052;SDS011;57398;52.032;4.376;2022-09-21T00:52:25;6.80;;;1.90;;
70052;SDS011;57398;52.032;4.376;2022-09-21T00:54:56;6.05;;;1.85;;
70052;SDS011;57398;52.032;4.376;2022-09-21T00:57:24;5.72;;;1.90;;
70052;SDS011;57398;52.032;4.376;2022-09-21T00:59:54;6.82;;;2.10;;
70052;SDS011;57398;52.032;4.376;2022-09-21T01:02:24;5.40;;;1.95;;
70052;SDS011;57398;52.032;4.376;2022-09-21T01:04:52;5.30;;;2.10;;
70052;SDS011;57398;52.032;4.376;2022-09-21T01:07:21;6.18;;;2.20;;
70052;SDS011;57398;52.032;4.376;2022-09-21T01:09:51;9.57;;;2.10;;
70052;SDS011;57398;52.032;4.376;2022-09-21T01:12:24;5.60;;;2.10;;
70052;SDS011;57398;52.032;4.376;2022-09-21T01:14:59;4.68;;;1.80;;
70052;SDS011;57398;52.032;4.376;2022-09-21T01:17:33;6.43;;;2.00;;
70052;SDS011;57398;52.032;4.376;2022-09-21T01:20:15;6.38;;;2.05;;
70052;SDS011;57398;52.032;4.376;2022-09-21T01:22:50;4.82;;;1.88;;
70052;SDS011;57398;52.032;4.376;2022-09-21T01:25:26;6.63;;;2.10;;
70052;SDS011;57398;52.032;4.376;2022-09-21T01:28:03;7.10;;;2.15;;
70052;SDS011;57398;52.032;4.376;2022-09-21T01:30:35;6.13;;;1.80;;
70052;SDS011;57398;52.032;4.376;2022-09-21T01:33:04;5.15;;;1.70;;
70052;SDS011;57398;52.032;4.376;2022-09-21T01:35:34;5.93;;;2.00;;
70052;SDS011;57398;52.032;4.376;2022-09-21T01:38:04;4.78;;;1.55;;
70052;SDS011;57398;52.032;4.376;2022-09-21T01:40:33;4.95;;;1.67;;
70052;SDS011;57398;52.032;4.376;2022-09-21T01:43:03;5.37;;;1.57;;
70052;SDS011;57398;52.032;4.376;2022-09-21T01:45:33;5.65;;;1.95;;
70052;SDS011;57398;52.032;4.376;2022-09-21T01:48:03;5.90;;;1.73;;
70052;SDS011;57398;52.032;4.376;2022-09-21T01:50:31;6.40;;;1.95;;
70052;SDS011;57398;52.032;4.376;2022-09-21T01:53:00;5.35;;;1.65;;
70052;SDS011;57398;52.032;4.376;2022-09-21T01:55:28;6.47;;;1.97;;
70052;SDS011;57398;52.032;4.376;2022-09-21T01:57:58;6.28;;;2.10;;
70052;SDS011;57398;52.032;4.376;2022-09-21T02:00:27;4.55;;;1.98;;
70052;SDS011;57398;52.032;4.376;2022-09-21T02:02:56;5.50;;;2.25;;
70052;SDS011;57398;52.032;4.376;2022-09-21T02:05:27;6.13;;;2.28;;
70052;SDS011;57398;52.032;4.376;2022-09-21T02:07:56;7.10;;;2.30;;
70052;SDS011;57398;52.032;4.376;2022-09-21T02:10:25;6.32;;;1.92;;
70052;SDS011;57398;52.032;4.376;2022-09-21T02:12:55;5.80;;;2.10;;
70052;SDS011;57398;52.032;4.376;2022-09-21T02:15:28;5.28;;;2.20;;
70052;SDS011;57398;52.032;4.376;2022-09-21T02:17:59;7.50;;;2.33;;
70052;SDS011;57398;52.032;4.376;2022-09-21T02:20:33;6.63;;;1.90;;
70052;SDS011;57398;52.032;4.376;2022-09-21T02:23:04;7.30;;;1.98;;
70052;SDS011;57398;52.032;4.376;2022-09-21T02:25:36;5.80;;;2.30;;
70052;SDS011;57398;52.032;4.376;2022-09-21T02:28:06;6.25;;;2.40;;
70052;SDS011;57398;52.032;4.376;2022-09-21T02:30:34;5.40;;;2.10;;
70052;SDS011;57398;52.032;4.376;2022-09-21T02:33:04;7.17;;;2.10;;
70052;SDS011;57398;52.032;4.376;2022-09-21T02:35:36;5.30;;;2.28;;
70052;SDS011;57398;52.032;4.376;2022-09-21T02:38:06;5.32;;;2.40;;
70052;SDS011;57398;52.032;4.376;2022-09-21T02:40:35;6.00;;;2.47;;
70052;SDS011;57398;52.032;4.376;2022-09-21T02:43:06;6.93;;;2.03;;
70052;SDS011;57398;52.032;4.376;2022-09-21T02:45:36;6.83;;;2.23;;
70052;SDS011;57398;52.032;4.376;2022-09-21T02:48:07;6.78;;;2.33;;
70052;SDS011;57398;52.032;4.376;2022-09-21T02:50:40;5.70;;;2.53;;
70052;SDS011;57398;52.032;4.376;2022-09-21T02:53:08;6.13;;;2.10;;
70052;SDS011;57398;52.032;4.376;2022-09-21T02:55:37;5.60;;;2.10;;
70052;SDS011;57398;52.032;4.376;2022-09-21T02:58:05;5.13;;;1.83;;
70052;SDS011;57398;52.032;4.376;2022-09-21T03:00:34;5.93;;;2.40;;
70052;SDS011;57398;52.032;4.376;2022-09-21T03:03:12;6.32;;;2.00;;
70052;SDS011;57398;52.032;4.376;2022-09-21T03:05:44;7.68;;;2.40;;
70052;SDS011;57398;52.032;4.376;2022-09-21T03:08:11;5.82;;;2.13;;
70052;SDS011;57398;52.032;4.376;2022-09-21T03:10:38;5.60;;;2.33;;
70052;SDS011;57398;52.032;4.376;2022-09-21T03:13:06;7.38;;;2.30;;
70052;SDS011;57398;52.032;4.376;2022-09-21T03:15:34;5.53;;;2.10;;
70052;SDS011;57398;52.032;4.376;2022-09-21T03:18:02;6.30;;;1.95;;
70052;SDS011;57398;52.032;4.376;2022-09-21T03:20:30;5.45;;;2.08;;
70052;SDS011;57398;52.032;4.376;2022-09-21T03:22:59;6.77;;;2.23;;
70052;SDS011;57398;52.032;4.376;2022-09-21T03:25:27;5.57;;;2.03;;
70052;SDS011;57398;52.032;4.376;2022-09-21T03:27:54;6.75;;;2.15;;
70052;SDS011;57398;52.032;4.376;2022-09-21T03:30:22;5.18;;;2.15;;
70052;SDS011;57398;52.032;4.376;2022-09-21T03:32:50;5.88;;;2.03;;
70052;SDS011;57398;52.032;4.376;2022-09-21T03:35:18;4.90;;;1.87;;
70052;SDS011;57398;52.032;4.376;2022-09-21T03:37:47;4.65;;;1.95;;
70052;SDS011;57398;52.032;4.376;2022-09-21T03:40:16;6.63;;;2.20;;
70052;SDS011;57398;52.032;4.376;2022-09-21T03:42:44;6.13;;;1.90;;
70052;SDS011;57398;52.032;4.376;2022-09-21T03:45:12;6.45;;;1.65;;
70052;SDS011;57398;52.032;4.376;2022-09-21T03:47:39;5.63;;;1.90;;
70052;SDS011;57398;52.032;4.376;2022-09-21T03:50:07;5.72;;;2.03;;
70052;SDS011;57398;52.032;4.376;2022-09-21T03:52:35;4.70;;;1.77;;
70052;SDS011;57398;52.032;4.376;2022-09-21T03:55:04;4.60;;;1.83;;
70052;SDS011;57398;52.032;4.376;2022-09-21T03:57:34;6.60;;;1.98;;
70052;SDS011;57398;52.032;4.376;2022-09-21T04:00:02;5.50;;;2.10;;
70052;SDS011;57398;52.032;4.376;2022-09-21T04:02:30;5.47;;;2.10;;
70052;SDS011;57398;52.032;4.376;2022-09-21T04:04:58;5.75;;;1.98;;
70052;SDS011;57398;52.032;4.376;2022-09-21T04:07:25;7.30;;;1.92;;
70052;SDS011;57398;52.032;4.376;2022-09-21T04:09:52;7.75;;;2.10;;
70052;SDS011;57398;52.032;4.376;2022-09-21T04:12:20;6.07;;;1.77;;
70052;SDS011;57398;52.032;4.376;2022-09-21T04:14:49;5.93;;;2.08;;
70052;SDS011;57398;52.032;4.376;2022-09-21T04:17:16;6.90;;;2.03;;
70052;SDS011;57398;52.032;4.376;2022-09-21T04:19:44;6.45;;;2.25;;
70052;SDS011;57398;52.032;4.376;2022-09-21T04:22:13;5.82;;;2.13;;
70052;SDS011;57398;52.032;4.376;2022-09-21T04:24:40;5.03;;;1.83;;
70052;SDS011;57398;52.032;4.376;2022-09-21T04:27:08;5.15;;;1.90;;
70052;SDS011;57398;52.032;4.376;2022-09-21T04:29:36;4.60;;;2.00;;
70052;SDS011;57398;52.032;4.376;2022-09-21T04:32:05;6.30;;;2.20;;
70052;SDS011;57398;52.032;4.376;2022-09-21T04:34:32;7.28;;;1.92;;
70052;SDS011;57398;52.032;4.376;2022-09-21T04:36:59;7.70;;;2.17;;
70052;SDS011;57398;52.032;4.376;2022-09-21T04:39:27;4.85;;;2.25;;
70052;SDS011;57398;52.032;4.376;2022-09-21T04:41:55;5.68;;;2.08;;
70052;SDS011;57398;52.032;4.376;2022-09-21T04:44:22;5.88;;;2.10;;
70052;SDS011;57398;52.032;4.376;2022-09-21T04:46:49;5.90;;;2.08;;
70052;SDS011;57398;52.032;4.376;2022-09-21T04:49:18;7.60;;;2.20;;
70052;SDS011;57398;52.032;4.376;2022-09-21T04:51:46;8.10;;;2.42;;
70052;SDS011;57398;52.032;4.376;2022-09-21T04:54:13;5.68;;;1.98;;
70052;SDS011;57398;52.032;4.376;2022-09-21T04:56:41;5.03;;;2.05;;
70052;SDS011;57398;52.032;4.376;2022-09-21T04:59:08;5.15;;;2.10;;
70052;SDS011;57398;52.032;4.376;2022-09-21T05:01:35;5.77;;;1.80;;
70052;SDS011;57398;52.032;4.376;2022-09-21T05:04:03;5.72;;;2.30;;
70052;SDS011;57398;52.032;4.376;2022-09-21T05:06:32;5.22;;;2.08;;
70052;SDS011;57398;52.032;4.376;2022-09-21T05:09:00;5.15;;;1.85;;
70052;SDS011;57398;52.032;4.376;2022-09-21T05:11:44;5.55;;;2.10;;
70052;SDS011;57398;52.032;4.376;2022-09-21T05:14:12;4.63;;;2.10;;
70052;SDS011;57398;52.032;4.376;2022-09-21T05:16:40;6.88;;;2.20;;
70052;SDS011;57398;52.032;4.376;2022-09-21T05:19:07;6.78;;;2.00;;
70052;SDS011;57398;52.032;4.376;2022-09-21T05:21:36;6.40;;;2.10;;
70052;SDS011;57398;52.032;4.376;2022-09-21T05:24:03;5.82;;;2.33;;
70052;SDS011;57398;52.032;4.376;2022-09-21T05:26:31;6.67;;;2.30;;
70052;SDS011;57398;52.032;4.376;2022-09-21T05:28:58;7.82;;;2.50;;
70052;SDS011;57398;52.032;4.376;2022-09-21T05:31:29;7.93;;;2.28;;
70052;SDS011;57398;52.032;4.376;2022-09-21T05:33:58;5.03;;;1.77;;
70052;SDS011;57398;52.032;4.376;2022-09-21T05:36:31;6.70;;;2.25;;
70052;SDS011;57398;52.032;4.376;2022-09-21T05:39:05;6.20;;;1.87;;
70052;SDS011;57398;52.032;4.376;2022-09-21T05:41:33;5.68;;;2.30;;
70052;SDS011;57398;52.032;4.376;2022-09-21T05:44:01;6.20;;;2.22;;
70052;SDS011;57398;52.032;4.376;2022-09-21T05:46:31;7.35;;;2.17;;
70052;SDS011;57398;52.032;4.376;2022-09-21T05:49:02;5.15;;;2.20;;
70052;SDS011;57398;52.032;4.376;2022-09-21T05:51:33;6.23;;;2.23;;
70052;SDS011;57398;52.032;4.376;2022-09-21T05:54:05;5.88;;;2.47;;
70052;SDS011;57398;52.032;4.376;2022-09-21T05:56:39;6.65;;;2.33;;
70052;SDS011;57398;52.032;4.376;2022-09-21T05:59:19;5.70;;;2.25;;
70052;SDS011;57398;52.032;4.376;2022-09-21T06:01:55;6.95;;;2.65;;
70052;SDS011;57398;52.032;4.376;2022-09-21T06:04:24;6.30;;;2.10;;
70052;SDS011;57398;52.032;4.376;2022-09-21T06:06:52;5.60;;;2.22;;
70052;SDS011;57398;52.032;4.376;2022-09-21T06:09:21;7.65;;;2.85;;
70052;SDS011;57398;52.032;4.376;2022-09-21T06:11:48;6.40;;;2.25;;
70052;SDS011;57398;52.032;4.376;2022-09-21T06:14:16;8.32;;;2.50;;
70052;SDS011;57398;52.032;4.376;2022-09-21T06:16:49;6.10;;;2.50;;
70052;SDS011;57398;52.032;4.376;2022-09-21T06:19:17;6.70;;;2.95;;
70052;SDS011;57398;52.032;4.376;2022-09-21T06:21:45;6.57;;;2.40;;
70052;SDS011;57398;52.032;4.376;2022-09-21T06:24:12;6.85;;;2.90;;
70052;SDS011;57398;52.032;4.376;2022-09-21T06:26:41;7.43;;;3.00;;
70052;SDS011;57398;52.032;4.376;2022-09-21T06:29:08;6.93;;;2.60;;
70052;SDS011;57398;52.032;4.376;2022-09-21T06:31:36;8.32;;;3.08;;
70052;SDS011;57398;52.032;4.376;2022-09-21T06:34:03;6.55;;;2.85;;
70052;SDS011;57398;52.032;4.376;2022-09-21T06:36:31;6.25;;;2.70;;
70052;SDS011;57398;52.032;4.376;2022-09-21T06:38:58;9.65;;;2.97;;
70052;SDS011;57398;52.032;4.376;2022-09-21T06:41:26;7.93;;;3.03;;
70052;SDS011;57398;52.032;4.376;2022-09-21T06:43:54;7.30;;;2.92;;
70052;SDS011;57398;52.032;4.376;2022-09-21T06:46:23;9.25;;;3.70;;
70052;SDS011;57398;52.032;4.376;2022-09-21T06:48:50;8.00;;;3.58;;
70052;SDS011;57398;52.032;4.376;2022-09-21T06:51:17;9.65;;;3.45;;
70052;SDS011;57398;52.032;4.376;2022-09-21T06:53:46;10.20;;;3.60;;
70052;SDS011;57398;52.032;4.376;2022-09-21T06:56:14;9.23;;;3.72;;
70052;SDS011;57398;52.032;4.376;2022-09-21T06:58:41;10.48;;;4.00;;
70052;SDS011;57398;52.032;4.376;2022-09-21T07:01:11;10.38;;;3.92;;
70052;SDS011;57398;52.032;4.376;2022-09-21T07:03:39;12.57;;;4.20;;
70052;SDS011;57398;52.032;4.376;2022-09-21T07:06:07;10.37;;;4.83;;
70052;SDS011;57398;52.032;4.376;2022-09-21T07:08:36;12.25;;;4.43;;
70052;SDS011;57398;52.032;4.376;2022-09-21T07:11:25;13.00;;;5.00;;
70052;SDS011;57398;52.032;4.376;2022-09-21T07:13:52;12.32;;;4.80;;
70052;SDS011;57398;52.032;4.376;2022-09-21T07:16:21;14.80;;;5.03;;
70052;SDS011;57398;52.032;4.376;2022-09-21T07:18:49;13.23;;;5.03;;
70052;SDS011;57398;52.032;4.376;2022-09-21T07:21:16;10.85;;;4.60;;
70052;SDS011;57398;52.032;4.376;2022-09-21T07:23:44;12.10;;;4.57;;
70052;SDS011;57398;52.032;4.376;2022-09-21T07:26:12;11.50;;;4.03;;
70052;SDS011;57398;52.032;4.376;2022-09-21T07:28:39;11.80;;;3.95;;
70052;SDS011;57398;52.032;4.376;2022-09-21T07:31:07;8.07;;;3.30;;
70052;SDS011;57398;52.032;4.376;2022-09-21T07:33:36;9.65;;;3.00;;
70052;SDS011;57398;52.032;4.376;2022-09-21T07:36:04;9.13;;;3.00;;
70052;SDS011;57398;52.032;4.376;2022-09-21T07:38:35;6.43;;;2.50;;
70052;SDS011;57398;52.032;4.376;2022-09-21T07:41:04;8.88;;;2.72;;
70052;SDS011;57398;52.032;4.376;2022-09-21T07:43:32;8.47;;;2.17;;
70052;SDS011;57398;52.032;4.376;2022-09-21T07:45:59;7.85;;;2.30;;
70052;SDS011;57398;52.032;4.376;2022-09-21T07:48:28;6.88;;;1.90;;
70052;SDS011;57398;52.032;4.376;2022-09-21T07:51:00;6.97;;;2.03;;
70052;SDS011;57398;52.032;4.376;2022-09-21T07:53:31;5.78;;;1.90;;
70052;SDS011;57398;52.032;4.376;2022-09-21T07:56:02;5.43;;;1.80;;
70052;SDS011;57398;52.032;4.376;2022-09-21T07:58:29;6.45;;;1.70;;
70052;SDS011;57398;52.032;4.376;2022-09-21T08:01:14;5.60;;;1.70;;
70052;SDS011;57398;52.032;4.376;2022-09-21T08:03:42;5.72;;;1.98;;
70052;SDS011;57398;52.032;4.376;2022-09-21T08:06:11;6.47;;;1.58;;
70052;SDS011;57398;52.032;4.376;2022-09-21T08:08:39;6.57;;;1.40;;
70052;SDS011;57398;52.032;4.376;2022-09-21T08:11:06;4.55;;;1.58;;
70052;SDS011;57398;52.032;4.376;2022-09-21T08:13:34;7.82;;;2.75;;
70052;SDS011;57398;52.032;4.376;2022-09-21T08:16:01;5.82;;;1.50;;
70052;SDS011;57398;52.032;4.376;2022-09-21T08:18:29;7.25;;;1.60;;
70052;SDS011;57398;52.032;4.376;2022-09-21T08:20:57;4.87;;;1.70;;
70052;SDS011;57398;52.032;4.376;2022-09-21T08:23:26;5.65;;;1.60;;
70052;SDS011;57398;52.032;4.376;2022-09-21T08:25:58;5.13;;;1.48;;
70052;SDS011;57398;52.032;4.376;2022-09-21T08:28:26;5.38;;;1.30;;
70052;SDS011;57398;52.032;4.376;2022-09-21T08:30:57;4.65;;;1.25;;
70052;SDS011;57398;52.032;4.376;2022-09-21T08:33:24;6.33;;;1.40;;
70052;SDS011;57398;52.032;4.376;2022-09-21T08:35:55;5.90;;;1.30;;
70052;SDS011;57398;52.032;4.376;2022-09-21T08:38:23;5.72;;;1.50;;
70052;SDS011;57398;52.032;4.376;2022-09-21T08:40:52;4.47;;;1.30;;
70052;SDS011;57398;52.032;4.376;2022-09-21T08:43:21;5.35;;;1.17;;
70052;SDS011;57398;52.032;4.376;2022-09-21T08:45:54;6.37;;;1.40;;
70052;SDS011;57398;52.032;4.376;2022-09-21T08:48:22;4.15;;;1.10;;
70052;SDS011;57398;52.032;4.376;2022-09-21T08:50:56;5.80;;;1.10;;
70052;SDS011;57398;52.032;4.376;2022-09-21T08:53:27;3.50;;;0.90;;
70052;SDS011;57398;52.032;4.376;2022-09-21T08:55:58;3.75;;;1.20;;
70052;SDS011;57398;52.032;4.376;2022-09-21T08:58:27;7.97;;;1.00;;
70052;SDS011;57398;52.032;4.376;2022-09-21T09:00:59;4.65;;;1.00;;
70052;SDS011;57398;52.032;4.376;2022-09-21T09:03:34;5.18;;;1.00;;
70052;SDS011;57398;52.032;4.376;2022-09-21T09:06:08;5.28;;;0.80;;
70052;SDS011;57398;52.032;4.376;2022-09-21T09:08:45;2.95;;;0.85;;
70052;SDS011;57398;52.032;4.376;2022-09-21T09:11:19;3.63;;;0.83;;
70052;SDS011;57398;52.032;4.376;2022-09-21T09:13:57;4.43;;;0.90;;
70052;SDS011;57398;52.032;4.376;2022-09-21T09:16:31;3.90;;;1.10;;
70052;SDS011;57398;52.032;4.376;2022-09-21T09:19:10;3.95;;;0.90;;
70052;SDS011;57398;52.032;4.376;2022-09-21T09:21:40;3.55;;;1.00;;
70052;SDS011;57398;52.032;4.376;2022-09-21T09:24:10;2.57;;;0.70;;
70052;SDS011;57398;52.032;4.376;2022-09-21T09:26:41;4.68;;;1.17;;
70052;SDS011;57398;52.032;4.376;2022-09-21T09:29:12;2.88;;;0.80;;
70052;SDS011;57398;52.032;4.376;2022-09-21T09:31:41;2.83;;;0.55;;
70052;SDS011;57398;52.032;4.376;2022-09-21T09:34:10;3.08;;;0.98;;
70052;SDS011;57398;52.032;4.376;2022-09-21T09:36:40;4.17;;;0.80;;
70052;SDS011;57398;52.032;4.376;2022-09-21T09:39:24;2.75;;;0.60;;
70052;SDS011;57398;52.032;4.376;2022-09-21T09:41:59;2.33;;;0.60;;
70052;SDS011;57398;52.032;4.376;2022-09-21T09:44:32;3.13;;;0.95;;
70052;SDS011;57398;52.032;4.376;2022-09-21T09:47:06;2.72;;;0.70;;
70052;SDS011;57398;52.032;4.376;2022-09-21T09:49:38;3.73;;;1.00;;
70052;SDS011;57398;52.032;4.376;2022-09-21T09:52:08;3.90;;;0.70;;
70052;SDS011;57398;52.032;4.376;2022-09-21T09:54:37;3.15;;;0.90;;
70052;SDS011;57398;52.032;4.376;2022-09-21T09:57:06;4.28;;;0.70;;
70052;SDS011;57398;52.032;4.376;2022-09-21T09:59:36;3.30;;;0.80;;
70052;SDS011;57398;52.032;4.376;2022-09-21T10:02:06;5.37;;;0.73;;
70052;SDS011;57398;52.032;4.376;2022-09-21T10:04:34;3.58;;;0.80;;
70052;SDS011;57398;52.032;4.376;2022-09-21T10:07:02;3.10;;;0.85;;
70052;SDS011;57398;52.032;4.376;2022-09-21T10:09:30;3.25;;;0.80;;
70052;SDS011;57398;52.032;4.376;2022-09-21T10:11:59;3.30;;;0.80;;
70052;SDS011;57398;52.032;4.376;2022-09-21T10:14:30;2.50;;;1.10;;
70052;SDS011;57398;52.032;4.376;2022-09-21T10:17:00;2.88;;;0.70;;
70052;SDS011;57398;52.032;4.376;2022-09-21T10:19:28;2.70;;;0.70;;
70052;SDS011;57398;52.032;4.376;2022-09-21T10:21:56;4.07;;;0.70;;
70052;SDS011;57398;52.032;4.376;2022-09-21T10:24:25;2.55;;;0.60;;
70052;SDS011;57398;52.032;4.376;2022-09-21T10:26:54;3.87;;;0.67;;
70052;SDS011;57398;52.032;4.376;2022-09-21T10:29:31;2.65;;;0.57;;
70052;SDS011;57398;52.032;4.376;2022-09-21T10:31:59;3.05;;;0.50;;
70052;SDS011;57398;52.032;4.376;2022-09-21T10:34:28;2.97;;;0.50;;
70052;SDS011;57398;52.032;4.376;2022-09-21T10:36:57;4.85;;;0.60;;
70052;SDS011;57398;52.032;4.376;2022-09-21T10:39:27;3.47;;;0.60;;
70052;SDS011;57398;52.032;4.376;2022-09-21T10:41:57;3.03;;;0.50;;
70052;SDS011;57398;52.032;4.376;2022-09-21T10:44:25;3.47;;;0.70;;
70052;SDS011;57398;52.032;4.376;2022-09-21T10:46:55;2.80;;;0.45;;
70052;SDS011;57398;52.032;4.376;2022-09-21T10:49:24;2.55;;;0.40;;
70052;SDS011;57398;52.032;4.376;2022-09-21T10:51:53;2.93;;;0.60;;
70052;SDS011;57398;52.032;4.376;2022-09-21T10:54:22;4.03;;;0.60;;
70052;SDS011;57398;52.032;4.376;2022-09-21T10:56:51;2.25;;;0.38;;
70052;SDS011;57398;52.032;4.376;2022-09-21T10:59:21;2.40;;;0.50;;
70052;SDS011;57398;52.032;4.376;2022-09-21T11:01:49;1.67;;;0.50;;
70052;SDS011;57398;52.032;4.376;2022-09-21T11:04:21;2.73;;;0.50;;
70052;SDS011;57398;52.032;4.376;2022-09-21T11:06:50;1.98;;;0.45;;
70052;SDS011;57398;52.032;4.376;2022-09-21T11:09:19;2.83;;;0.50;;
70052;SDS011;57398;52.032;4.376;2022-09-21T11:11:49;2.92;;;0.55;;
70052;SDS011;57398;52.032;4.376;2022-09-21T11:14:24;2.35;;;0.40;;
70052;SDS011;57398;52.032;4.376;2022-09-21T11:16:54;2.07;;;0.60;;
70052;SDS011;57398;52.032;4.376;2022-09-21T11:19:27;3.75;;;0.50;;
70052;SDS011;57398;52.032;4.376;2022-09-21T11:21:57;3.35;;;0.88;;
70052;SDS011;57398;52.032;4.376;2022-09-21T11:24:28;3.55;;;0.80;;
70052;SDS011;57398;52.032;4.376;2022-09-21T11:26:58;3.80;;;0.60;;
70052;SDS011;57398;52.032;4.376;2022-09-21T11:29:30;2.90;;;0.70;;
70052;SDS011;57398;52.032;4.376;2022-09-21T11:32:09;2.95;;;0.60;;
70052;SDS011;57398;52.032;4.376;2022-09-21T11:34:45;3.03;;;0.77;;
70052;SDS011;57398;52.032;4.376;2022-09-21T11:37:17;2.45;;;0.68;;
70052;SDS011;57398;52.032;4.376;2022-09-21T11:39:50;4.15;;;0.50;;
70052;SDS011;57398;52.032;4.376;2022-09-21T11:42:28;2.57;;;0.47;;
70052;SDS011;57398;52.032;4.376;2022-09-21T11:44:58;3.15;;;0.60;;
70052;SDS011;57398;52.032;4.376;2022-09-21T11:47:36;4.40;;;0.60;;
70052;SDS011;57398;52.032;4.376;2022-09-21T11:50:12;3.33;;;0.73;;
70052;SDS011;57398;52.032;4.376;2022-09-21T11:52:59;2.55;;;0.70;;
70052;SDS011;57398;52.032;4.376;2022-09-21T11:55:37;3.40;;;0.57;;
70052;SDS011;57398;52.032;4.376;2022-09-21T11:58:11;2.22;;;0.32;;
70052;SDS011;57398;52.032;4.376;2022-09-21T12:00:43;2.92;;;0.30;;
70052;SDS011;57398;52.032;4.376;2022-09-21T12:06:15;2.40;;;0.60;;
70052;SDS011;57398;52.032;4.376;2022-09-21T12:08:47;2.70;;;0.50;;
70052;SDS011;57398;52.032;4.376;2022-09-21T12:11:20;1.90;;;0.43;;
70052;SDS011;57398;52.032;4.376;2022-09-21T12:13:51;2.97;;;0.50;;
70052;SDS011;57398;52.032;4.376;2022-09-21T12:16:22;2.72;;;0.55;;
70052;SDS011;57398;52.032;4.376;2022-09-21T12:18:53;2.13;;;0.60;;
70052;SDS011;57398;52.032;4.376;2022-09-21T12:21:26;2.20;;;0.53;;
70052;SDS011;57398;52.032;4.376;2022-09-21T12:23:56;2.97;;;0.50;;
70052;SDS011;57398;52.032;4.376;2022-09-21T12:26:24;3.50;;;0.68;;
70052;SDS011;57398;52.032;4.376;2022-09-21T12:28:53;3.38;;;0.50;;
70052;SDS011;57398;52.032;4.376;2022-09-21T12:31:27;2.38;;;0.60;;
70052;SDS011;57398;52.032;4.376;2022-09-21T12:33:56;3.20;;;0.70;;
70052;SDS011;57398;52.032;4.376;2022-09-21T12:36:26;3.65;;;0.60;;
70052;SDS011;57398;52.032;4.376;2022-09-21T12:38:57;2.95;;;0.68;;
70052;SDS011;57398;52.032;4.376;2022-09-21T12:41:28;3.97;;;0.60;;
70052;SDS011;57398;52.032;4.376;2022-09-21T12:43:59;2.50;;;0.70;;
70052;SDS011;57398;52.032;4.376;2022-09-21T12:46:28;3.63;;;0.60;;
70052;SDS011;57398;52.032;4.376;2022-09-21T12:48:58;4.93;;;0.52;;
70052;SDS011;57398;52.032;4.376;2022-09-21T12:51:30;3.05;;;0.70;;
70052;SDS011;57398;52.032;4.376;2022-09-21T12:54:00;3.65;;;0.60;;
70052;SDS011;57398;52.032;4.376;2022-09-21T12:56:33;4.22;;;0.60;;
70052;SDS011;57398;52.032;4.376;2022-09-21T12:59:05;3.20;;;0.60;;
70052;SDS011;57398;52.032;4.376;2022-09-21T13:01:35;4.33;;;0.70;;
70052;SDS011;57398;52.032;4.376;2022-09-21T13:04:22;4.32;;;0.70;;
70052;SDS011;57398;52.032;4.376;2022-09-21T13:06:59;3.50;;;0.60;;
70052;SDS011;57398;52.032;4.376;2022-09-21T13:09:30;2.47;;;0.50;;
70052;SDS011;57398;52.032;4.376;2022-09-21T13:11:58;3.50;;;0.70;;
70052;SDS011;57398;52.032;4.376;2022-09-21T13:14:27;3.23;;;0.63;;
70052;SDS011;57398;52.032;4.376;2022-09-21T13:16:56;3.47;;;0.68;;
70052;SDS011;57398;52.032;4.376;2022-09-21T13:19:25;5.43;;;0.80;;
70052;SDS011;57398;52.032;4.376;2022-09-21T13:22:11;4.63;;;0.70;;
70052;SDS011;57398;52.032;4.376;2022-09-21T13:24:45;2.70;;;0.70;;
70052;SDS011;57398;52.032;4.376;2022-09-21T13:27:13;4.43;;;0.70;;
70052;SDS011;57398;52.032;4.376;2022-09-21T13:29:41;2.67;;;0.50;;
70052;SDS011;57398;52.032;4.376;2022-09-21T13:32:22;3.75;;;0.55;;
70052;SDS011;57398;52.032;4.376;2022-09-21T13:34:50;3.88;;;0.77;;
70052;SDS011;57398;52.032;4.376;2022-09-21T13:37:28;3.53;;;0.68;;
70052;SDS011;57398;52.032;4.376;2022-09-21T13:42:43;4.55;;;1.05;;
70052;SDS011;57398;52.032;4.376;2022-09-21T13:47:55;2.40;;;0.70;;
70052;SDS011;57398;52.032;4.376;2022-09-21T13:50:25;3.75;;;0.80;;
70052;SDS011;57398;52.032;4.376;2022-09-21T13:52:55;2.50;;;0.83;;
70052;SDS011;57398;52.032;4.376;2022-09-21T13:55:26;3.25;;;0.70;;
70052;SDS011;57398;52.032;4.376;2022-09-21T13:57:54;2.78;;;0.90;;
70052;SDS011;57398;52.032;4.376;2022-09-21T14:00:24;2.40;;;0.80;;
70052;SDS011;57398;52.032;4.376;2022-09-21T14:02:57;4.15;;;0.88;;
70052;SDS011;57398;52.032;4.376;2022-09-21T14:05:29;3.20;;;0.83;;
70052;SDS011;57398;52.032;4.376;2022-09-21T14:07:59;2.90;;;0.70;;
70052;SDS011;57398;52.032;4.376;2022-09-21T14:10:27;1.90;;;0.65;;
70052;SDS011;57398;52.032;4.376;2022-09-21T14:12:57;4.05;;;0.90;;
70052;SDS011;57398;52.032;4.376;2022-09-21T14:15:29;3.65;;;0.77;;
70052;SDS011;57398;52.032;4.376;2022-09-21T14:18:07;3.27;;;0.67;;
70052;SDS011;57398;52.032;4.376;2022-09-21T14:20:35;3.88;;;0.70;;
70052;SDS011;57398;52.032;4.376;2022-09-21T14:23:22;2.33;;;0.70;;
70052;SDS011;57398;52.032;4.376;2022-09-21T14:25:52;4.78;;;0.65;;
70052;SDS011;57398;52.032;4.376;2022-09-21T14:28:27;3.33;;;0.60;;
70052;SDS011;57398;52.032;4.376;2022-09-21T14:31:00;3.43;;;0.70;;
70052;SDS011;57398;52.032;4.376;2022-09-21T14:33:31;2.90;;;0.70;;
70052;SDS011;57398;52.032;4.376;2022-09-21T14:36:00;4.13;;;0.60;;
70052;SDS011;57398;52.032;4.376;2022-09-21T14:38:36;2.88;;;0.85;;
70052;SDS011;57398;52.032;4.376;2022-09-21T14:41:07;2.88;;;0.70;;
70052;SDS011;57398;52.032;4.376;2022-09-21T14:43:41;2.87;;;0.60;;
70052;SDS011;57398;52.032;4.376;2022-09-21T14:48:57;4.30;;;0.60;;
70052;SDS011;57398;52.032;4.376;2022-09-21T14:51:28;4.43;;;0.70;;
70052;SDS011;57398;52.032;4.376;2022-09-21T14:54:16;3.58;;;0.70;;
70052;SDS011;57398;52.032;4.376;2022-09-21T14:56:50;4.20;;;0.80;;
70052;SDS011;57398;52.032;4.376;2022-09-21T14:59:32;2.60;;;0.60;;
70052;SDS011;57398;52.032;4.376;2022-09-21T15:02:11;3.42;;;0.60;;
70052;SDS011;57398;52.032;4.376;2022-09-21T15:04:42;2.72;;;0.70;;
70052;SDS011;57398;52.032;4.376;2022-09-21T15:07:23;2.88;;;0.63;;
70052;SDS011;57398;52.032;4.376;2022-09-21T15:10:17;2.97;;;0.70;;
70052;SDS011;57398;52.032;4.376;2022-09-21T15:13:07;3.45;;;0.73;;
70052;SDS011;57398;52.032;4.376;2022-09-21T15:15:36;3.00;;;0.65;;
70052;SDS011;57398;52.032;4.376;2022-09-21T15:18:13;2.55;;;0.70;;